Time;durP1;ratioP1;P1;durP2;ratioP2;P2;SDS_P1;SDS_P2;PMS_P1;PMS_P2;Temp;Humidity;BMP_temperature;BMP_pressure;BME280_temperature;BME280_humidity;BME280_pressure;Samples;Min_cycle;Max_cycle;Signal;HPM_P1;HPM_P2
2022/06/23 00:00:59;;;;;;;2.50;2.30;;;;;;;;;;5064230;28;20259;-53
2022/06/23 00:03:28;;;;;;;2.60;2.17;;;;;;;;;;5045630;28;20729;-53
2022/06/23 00:05:58;;;;;;;2.17;1.97;;;;;;;;;;5063864;28;20231;-53
2022/06/23 00:08:25;;;;;;;2.30;2.10;;;;;;;;;;5046474;28;20517;-53
2022/06/23 00:10:59;;;;;;;2.10;2.00;;;;;;;;;;5044311;28;20181;-53
2022/06/23 00:13:34;;;;;;;2.90;2.30;;;;;;;;;;5060322;28;20187;-52
2022/06/23 00:16:01;;;;;;;2.10;2.00;;;;;;;;;;5046651;28;20184;-53
2022/06/23 00:18:32;;;;;;;2.27;2.10;;;;;;;;;;5063385;28;20915;-53
2022/06/23 00:21:10;;;;;;;4.27;2.40;;;;;;;;;;5082628;28;20184;-53
2022/06/23 00:23:39;;;;;;;2.23;2.03;;;;;;;;;;5064119;28;20184;-53
2022/06/23 00:26:15;;;;;;;1.90;1.80;;;;;;;;;;5086434;28;20183;-53
2022/06/23 00:28:42;;;;;;;2.00;1.90;;;;;;;;;;5066139;28;20684;-53
2022/06/23 00:31:23;;;;;;;2.00;1.90;;;;;;;;;;5063289;28;20184;-53
2022/06/23 00:33:49;;;;;;;2.80;2.60;;;;;;;;;;5083705;28;20283;-53
2022/06/23 00:36:28;;;;;;;3.00;1.97;;;;;;;;;;5068137;28;20164;-53
2022/06/23 00:38:54;;;;;;;2.10;2.00;;;;;;;;;;5053767;28;20658;-53
2022/06/23 00:41:26;;;;;;;2.50;2.23;;;;;;;;;;5082912;28;20266;-53
2022/06/23 00:43:52;;;;;;;2.13;2.03;;;;;;;;;;5065984;28;20230;-53
2022/06/23 00:46:23;;;;;;;2.40;2.20;;;;;;;;;;5072240;28;20518;-53
2022/06/23 00:48:59;;;;;;;2.23;2.07;;;;;;;;;;5065785;28;20176;-53
2022/06/23 00:51:30;;;;;;;3.00;2.07;;;;;;;;;;5054923;28;20192;-52
2022/06/23 00:54:12;;;;;;;2.80;2.30;;;;;;;;;;5066552;28;20179;-53
2022/06/23 00:56:41;;;;;;;2.47;2.03;;;;;;;;;;5065930;28;20196;-53
2022/06/23 00:59:17;;;;;;;2.40;2.20;;;;;;;;;;5061707;28;20221;-53
2022/06/23 01:01:53;;;;;;;2.10;2.00;;;;;;;;;;5071544;28;20175;-53
2022/06/23 01:04:42;;;;;;;2.57;2.37;;;;;;;;;;5084930;28;20229;-52
2022/06/23 01:07:19;;;;;;;2.33;2.10;;;;;;;;;;5073009;28;20228;-53
2022/06/23 01:10:07;;;;;;;2.40;2.20;;;;;;;;;;5064262;28;20591;-52
2022/06/23 01:12:48;;;;;;;2.13;1.93;;;;;;;;;;5075942;28;20183;-52
2022/06/23 01:15:18;;;;;;;2.40;2.20;;;;;;;;;;5070828;28;20597;-52
2022/06/23 01:17:49;;;;;;;2.60;2.40;;;;;;;;;;5072040;28;20234;-53
2022/06/23 01:20:41;;;;;;;1.80;1.70;;;;;;;;;;5084758;28;20592;-53
2022/06/23 01:23:23;;;;;;;2.70;2.10;;;;;;;;;;5076979;28;20281;-52
2022/06/23 01:26:02;;;;;;;2.17;1.97;;;;;;;;;;5092103;28;20262;-52
2022/06/23 01:28:30;;;;;;;2.40;2.13;;;;;;;;;;5082348;28;20180;-53
2022/06/23 01:30:58;;;;;;;2.40;2.20;;;;;;;;;;5066510;28;20646;-53
2022/06/23 01:33:28;;;;;;;2.37;2.17;;;;;;;;;;5064804;28;20183;-53
2022/06/23 01:36:00;;;;;;;2.03;1.90;;;;;;;;;;5077891;28;20187;-53
2022/06/23 01:38:45;;;;;;;2.23;2.13;;;;;;;;;;5084686;28;20192;-52
2022/06/23 01:41:18;;;;;;;2.60;2.40;;;;;;;;;;5087095;28;20543;-53
2022/06/23 01:43:51;;;;;;;2.50;2.30;;;;;;;;;;5048565;28;20245;-53
2022/06/23 01:46:25;;;;;;;2.30;2.10;;;;;;;;;;5054961;28;20185;-53
2022/06/23 01:49:14;;;;;;;2.33;2.00;;;;;;;;;;5067788;28;20186;-53
2022/06/23 01:51:46;;;;;;;2.30;2.10;;;;;;;;;;5054122;28;20221;-53
2022/06/23 01:54:15;;;;;;;3.00;2.00;;;;;;;;;;5087813;28;20602;-53
2022/06/23 01:56:50;;;;;;;2.40;2.20;;;;;;;;;;5050773;28;20302;-51
2022/06/23 01:59:27;;;;;;;2.50;2.30;;;;;;;;;;5058325;28;20646;-51
2022/06/23 02:02:09;;;;;;;2.20;2.10;;;;;;;;;;5095791;28;20283;-52
2022/06/23 02:04:50;;;;;;;3.10;2.23;;;;;;;;;;5068280;28;20176;-53
2022/06/23 02:07:26;;;;;;;2.27;2.17;;;;;;;;;;5084643;28;20534;-53
2022/06/23 02:09:54;;;;;;;2.63;2.43;;;;;;;;;;5086476;28;20168;-53
2022/06/23 02:12:29;;;;;;;2.23;1.80;;;;;;;;;;5086363;28;20235;-52
2022/06/23 02:15:04;;;;;;;2.10;2.00;;;;;;;;;;5068126;28;20191;-52
2022/06/23 02:17:39;;;;;;;2.13;2.00;;;;;;;;;;5069891;28;20425;-53
2022/06/23 02:20:17;;;;;;;3.30;2.40;;;;;;;;;;5088608;28;20632;-53
2022/06/23 02:22:46;;;;;;;2.50;2.30;;;;;;;;;;5106269;28;20237;-53
2022/06/23 02:25:12;;;;;;;2.73;2.30;;;;;;;;;;5101909;28;20175;-53
2022/06/23 02:27:57;;;;;;;5.70;2.77;;;;;;;;;;5106822;28;20717;-53
2022/06/23 02:30:29;;;;;;;2.37;2.20;;;;;;;;;;5108162;28;20591;-54
2022/06/23 02:33:14;;;;;;;2.20;2.10;;;;;;;;;;5082416;28;20551;-54
2022/06/23 02:35:59;;;;;;;3.63;2.47;;;;;;;;;;5078801;28;20521;-54
2022/06/23 02:38:30;;;;;;;2.93;2.67;;;;;;;;;;5083149;28;20232;-54
2022/06/23 02:40:57;;;;;;;3.53;2.73;;;;;;;;;;5087347;28;20590;-54
2022/06/23 02:43:25;;;;;;;2.50;2.10;;;;;;;;;;5087945;28;20740;-54
2022/06/23 02:46:10;;;;;;;2.20;2.10;;;;;;;;;;5090151;28;20648;-53
2022/06/23 02:48:54;;;;;;;2.63;2.43;;;;;;;;;;5103088;28;20270;-53
2022/06/23 02:51:36;;;;;;;2.47;2.27;;;;;;;;;;5089503;28;20301;-53
2022/06/23 02:54:26;;;;;;;2.60;2.40;;;;;;;;;;5087431;28;20187;-53
2022/06/23 02:56:59;;;;;;;2.63;2.43;;;;;;;;;;5086524;28;20286;-53
2022/06/23 02:59:44;;;;;;;2.40;2.20;;;;;;;;;;5089194;28;20704;-52
2022/06/23 03:02:29;;;;;;;2.70;2.30;;;;;;;;;;5083147;28;20175;-52
2022/06/23 03:04:57;;;;;;;2.33;2.13;;;;;;;;;;5101914;28;21218;-52
2022/06/23 03:07:31;;;;;;;3.07;2.60;;;;;;;;;;5082622;28;20338;-52
2022/06/23 03:10:00;;;;;;;3.10;2.27;;;;;;;;;;5104561;28;20195;-53
2022/06/23 03:12:35;;;;;;;2.87;2.47;;;;;;;;;;5086721;28;20175;-52
2022/06/23 03:15:04;;;;;;;2.37;2.10;;;;;;;;;;5071221;28;20675;-53
2022/06/23 03:17:33;;;;;;;3.53;2.40;;;;;;;;;;5103005;28;20231;-53
2022/06/23 03:20:09;;;;;;;2.30;2.20;;;;;;;;;;5087385;28;20182;-53
2022/06/23 03:22:41;;;;;;;2.40;2.20;;;;;;;;;;5096173;28;20293;-52
2022/06/23 03:25:14;;;;;;;3.63;2.60;;;;;;;;;;5088360;28;20183;-53
2022/06/23 03:27:46;;;;;;;2.60;2.40;;;;;;;;;;5105166;28;20308;-53
2022/06/23 03:30:16;;;;;;;2.70;2.50;;;;;;;;;;5106253;28;20236;-53
2022/06/23 03:32:55;;;;;;;2.50;2.30;;;;;;;;;;5087456;28;20183;-53
2022/06/23 03:35:23;;;;;;;2.20;2.10;;;;;;;;;;5103254;28;20541;-53
2022/06/23 03:37:56;;;;;;;2.63;2.40;;;;;;;;;;5084936;28;20698;-53
2022/06/23 03:43:31;;;;;;;2.50;2.30;;;;;;;;;;5103820;28;20191;-54
2022/06/23 03:46:06;;;;;;;2.43;2.23;;;;;;;;;;5104005;28;20191;-53
2022/06/23 03:48:41;;;;;;;2.70;2.50;;;;;;;;;;5084251;28;20652;-54
2022/06/23 03:51:13;;;;;;;2.43;2.23;;;;;;;;;;5104502;28;20195;-53
2022/06/23 03:53:51;;;;;;;2.83;2.63;;;;;;;;;;5081777;28;20358;-53
2022/06/23 03:56:22;;;;;;;2.60;2.40;;;;;;;;;;5105271;28;20208;-53
2022/06/23 03:59:09;;;;;;;3.17;2.57;;;;;;;;;;5104025;28;20207;-53
2022/06/23 04:02:04;;;;;;;2.67;2.30;;;;;;;;;;5105934;28;20186;-53
2022/06/23 04:04:52;;;;;;;2.50;2.03;;;;;;;;;;5078958;28;20236;-53
2022/06/23 04:07:31;;;;;;;4.53;4.23;;;;;;;;;;5096024;28;20581;-53
2022/06/23 04:10:09;;;;;;;2.57;2.37;;;;;;;;;;5086806;28;20229;-53
2022/06/23 04:12:39;;;;;;;2.70;2.50;;;;;;;;;;5097264;28;20698;-53
2022/06/23 04:15:08;;;;;;;2.60;2.40;;;;;;;;;;5105198;28;20557;-53
2022/06/23 04:17:44;;;;;;;2.73;2.33;;;;;;;;;;5081296;28;20221;-53
2022/06/23 04:20:10;;;;;;;2.53;2.30;;;;;;;;;;5082212;28;20622;-51
2022/06/23 04:22:39;;;;;;;2.10;2.00;;;;;;;;;;5085275;28;20354;-53
2022/06/23 04:25:07;;;;;;;2.97;2.77;;;;;;;;;;5084118;28;20190;-53
2022/06/23 04:27:38;;;;;;;2.57;2.37;;;;;;;;;;5084750;28;20663;-53
2022/06/23 04:30:05;;;;;;;2.77;2.07;;;;;;;;;;5084740;28;20508;-53
2022/06/23 04:32:36;;;;;;;2.60;2.40;;;;;;;;;;5079098;28;20181;-53
2022/06/23 04:35:03;;;;;;;3.00;2.80;;;;;;;;;;5083989;28;20181;-54
2022/06/23 04:37:33;;;;;;;2.90;2.60;;;;;;;;;;5066623;28;20250;-52
2022/06/23 04:40:08;;;;;;;2.77;2.57;;;;;;;;;;5083721;28;20248;-52
2022/06/23 04:42:38;;;;;;;3.30;2.40;;;;;;;;;;5066302;28;20188;-52
2022/06/23 04:45:22;;;;;;;2.70;2.50;;;;;;;;;;5088599;28;20203;-52
2022/06/23 04:47:50;;;;;;;2.60;2.40;;;;;;;;;;5061738;28;20189;-52
2022/06/23 04:50:18;;;;;;;2.50;2.30;;;;;;;;;;5064399;28;20226;-52
2022/06/23 04:52:48;;;;;;;2.40;2.20;;;;;;;;;;5070171;28;20281;-51
2022/06/23 04:55:17;;;;;;;2.33;2.23;;;;;;;;;;5056487;28;20592;-52
2022/06/23 04:57:52;;;;;;;2.37;2.20;;;;;;;;;;5079472;28;20203;-52
2022/06/23 05:00:23;;;;;;;3.07;2.87;;;;;;;;;;5086518;28;20178;-52
2022/06/23 05:02:52;;;;;;;2.20;2.10;;;;;;;;;;5046816;28;20185;-52
2022/06/23 05:05:38;;;;;;;3.23;2.93;;;;;;;;;;5091251;28;20685;-52
2022/06/23 05:08:07;;;;;;;2.53;2.33;;;;;;;;;;5091669;28;20276;-52
2022/06/23 05:10:37;;;;;;;2.90;2.60;;;;;;;;;;5078231;28;20537;-52
2022/06/23 05:13:08;;;;;;;2.63;2.27;;;;;;;;;;5054926;28;20212;-52
2022/06/23 05:15:39;;;;;;;2.83;2.63;;;;;;;;;;5057927;28;20185;-51
2022/06/23 05:18:10;;;;;;;2.70;2.50;;;;;;;;;;5068754;28;20650;-53
2022/06/23 05:20:40;;;;;;;2.77;2.57;;;;;;;;;;5069931;28;20219;-53
2022/06/23 05:23:12;;;;;;;3.17;2.87;;;;;;;;;;5088006;28;20658;-52
2022/06/23 05:25:43;;;;;;;2.87;2.60;;;;;;;;;;5076375;28;20195;-52
2022/06/23 05:28:15;;;;;;;2.60;2.40;;;;;;;;;;5070211;28;20173;-53
2022/06/23 05:30:47;;;;;;;3.07;2.87;;;;;;;;;;5087987;28;20193;-52
2022/06/23 05:33:16;;;;;;;2.80;2.60;;;;;;;;;;5086549;28;20231;-52
2022/06/23 05:35:44;;;;;;;2.73;2.43;;;;;;;;;;5086635;28;20280;-52
2022/06/23 05:38:19;;;;;;;2.60;2.40;;;;;;;;;;5089101;28;20968;-52
2022/06/23 05:40:55;;;;;;;2.67;2.47;;;;;;;;;;5069296;28;20288;-52
2022/06/23 05:43:22;;;;;;;2.10;1.97;;;;;;;;;;5087206;28;20609;-52
2022/06/23 05:45:53;;;;;;;2.37;2.17;;;;;;;;;;5069892;28;20207;-52
2022/06/23 05:48:28;;;;;;;2.73;2.53;;;;;;;;;;5080990;28;20194;-52
2022/06/23 05:51:06;;;;;;;2.50;2.30;;;;;;;;;;5061984;28;20193;-52
2022/06/23 05:53:39;;;;;;;2.57;2.37;;;;;;;;;;5084469;28;20191;-52
2022/06/23 05:56:13;;;;;;;3.70;2.80;;;;;;;;;;5087591;28;20205;-52
2022/06/23 05:58:50;;;;;;;2.80;2.60;;;;;;;;;;5087225;28;20189;-52
2022/06/23 06:01:39;;;;;;;3.37;2.70;;;;;;;;;;5086926;28;20172;-53
2022/06/23 06:04:25;;;;;;;2.87;2.67;;;;;;;;;;5078691;28;20173;-54
2022/06/23 06:06:52;;;;;;;4.27;2.93;;;;;;;;;;5079546;28;20185;-59
2022/06/23 06:09:35;;;;;;;2.90;2.70;;;;;;;;;;5086277;28;20186;-61
2022/06/23 06:12:03;;;;;;;8.83;3.30;;;;;;;;;;5082840;28;20740;-58
2022/06/23 06:14:31;;;;;;;4.47;3.27;;;;;;;;;;5082150;28;20659;-58
2022/06/23 06:16:58;;;;;;;4.07;2.97;;;;;;;;;;5084911;28;20609;-59
2022/06/23 06:19:26;;;;;;;2.97;2.77;;;;;;;;;;5061424;28;20697;-59
2022/06/23 06:21:59;;;;;;;3.00;2.70;;;;;;;;;;5090505;28;20173;-58
2022/06/23 06:24:29;;;;;;;3.67;2.50;;;;;;;;;;5061927;28;20634;-59
2022/06/23 06:26:57;;;;;;;3.87;3.10;;;;;;;;;;5060229;28;21418;-59
2022/06/23 06:29:29;;;;;;;4.27;3.37;;;;;;;;;;5073287;28;20259;-60
2022/06/23 06:31:57;;;;;;;4.50;3.13;;;;;;;;;;5068383;28;20187;-60
2022/06/23 06:34:33;;;;;;;3.73;2.90;;;;;;;;;;5067151;28;20183;-60
2022/06/23 06:37:00;;;;;;;5.30;3.47;;;;;;;;;;5091703;28;20186;-61
2022/06/23 06:39:30;;;;;;;5.33;3.53;;;;;;;;;;5063021;28;20187;-61
2022/06/23 06:42:03;;;;;;;4.93;3.60;;;;;;;;;;5081913;28;20183;-62
2022/06/23 06:44:30;;;;;;;4.30;3.50;;;;;;;;;;5054675;28;20261;-62
2022/06/23 06:46:56;;;;;;;4.13;3.50;;;;;;;;;;5074046;28;20219;-61
2022/06/23 06:49:24;;;;;;;6.13;3.77;;;;;;;;;;5074208;28;20187;-61
2022/06/23 06:51:51;;;;;;;5.37;3.60;;;;;;;;;;5092401;28;20200;-61
2022/06/23 06:54:19;;;;;;;5.00;4.07;;;;;;;;;;5087751;28;20641;-60
2022/06/23 06:56:52;;;;;;;5.27;3.57;;;;;;;;;;5077126;28;20262;-60
2022/06/23 06:59:31;;;;;;;4.10;3.40;;;;;;;;;;5084797;28;20187;-59
2022/06/23 07:02:04;;;;;;;4.57;3.50;;;;;;;;;;5068540;28;20188;-60
2022/06/23 07:04:33;;;;;;;6.93;3.90;;;;;;;;;;5055437;28;20179;-59
2022/06/23 07:07:02;;;;;;;6.07;4.40;;;;;;;;;;5082769;28;20184;-59
2022/06/23 07:09:49;;;;;;;6.13;3.80;;;;;;;;;;5083886;28;20182;-60
2022/06/23 07:12:24;;;;;;;4.70;3.50;;;;;;;;;;5054049;28;20184;-61
2022/06/23 07:15:01;;;;;;;5.13;3.67;;;;;;;;;;5078415;28;20183;-62
2022/06/23 07:17:32;;;;;;;6.13;3.70;;;;;;;;;;5067072;28;20227;-61
2022/06/23 07:20:05;;;;;;;4.60;4.07;;;;;;;;;;5080378;28;20188;-60
2022/06/23 07:22:31;;;;;;;4.23;3.67;;;;;;;;;;5083290;28;20172;-60
2022/06/23 07:25:00;;;;;;;6.30;3.83;;;;;;;;;;5056667;28;20186;-60
2022/06/23 07:27:33;;;;;;;5.40;3.73;;;;;;;;;;5063538;28;20184;-59
2022/06/23 07:30:05;;;;;;;6.40;3.67;;;;;;;;;;5086564;28;20195;-59
2022/06/23 07:32:32;;;;;;;4.77;3.60;;;;;;;;;;5094190;28;20231;-60
2022/06/23 07:35:02;;;;;;;6.77;3.80;;;;;;;;;;5081212;28;20561;-60
2022/06/23 07:37:42;;;;;;;6.97;4.50;;;;;;;;;;5080830;28;20226;-58
2022/06/23 07:40:11;;;;;;;5.43;3.40;;;;;;;;;;5070948;28;20189;-58
2022/06/23 07:42:56;;;;;;;5.43;4.37;;;;;;;;;;5084471;28;20966;-58
2022/06/23 07:45:34;;;;;;;6.33;3.70;;;;;;;;;;5083554;28;20194;-58
2022/06/23 07:48:01;;;;;;;4.80;4.17;;;;;;;;;;5082488;28;20222;-59
2022/06/23 07:50:28;;;;;;;3.83;3.50;;;;;;;;;;5095399;28;20654;-58
2022/06/23 07:52:55;;;;;;;4.47;3.10;;;;;;;;;;5077774;28;20214;-58
2022/06/23 07:55:42;;;;;;;5.93;4.03;;;;;;;;;;5078136;28;20180;-58
2022/06/23 07:58:08;;;;;;;4.57;3.93;;;;;;;;;;5087202;28;20210;-58
2022/06/23 08:00:37;;;;;;;8.47;3.90;;;;;;;;;;5079905;28;20187;-59
2022/06/23 08:03:07;;;;;;;5.70;3.50;;;;;;;;;;5080126;28;20970;-58
2022/06/23 08:05:39;;;;;;;5.63;3.70;;;;;;;;;;5082334;28;20183;-53
2022/06/23 08:08:07;;;;;;;6.00;4.00;;;;;;;;;;5080002;28;20192;-54
2022/06/23 08:10:33;;;;;;;4.00;3.67;;;;;;;;;;5083940;28;20636;-53
2022/06/23 08:13:05;;;;;;;5.07;3.63;;;;;;;;;;5083197;28;20633;-53
2022/06/23 08:18:17;;;;;;;4.27;3.73;;;;;;;;;;5088509;28;20350;-54
2022/06/23 08:20:46;;;;;;;4.63;4.20;;;;;;;;;;5102362;28;20245;-54
2022/06/23 08:23:13;;;;;;;4.40;4.00;;;;;;;;;;5098456;28;20182;-53
2022/06/23 08:25:41;;;;;;;5.43;3.80;;;;;;;;;;5104660;28;20632;-54
2022/06/23 08:28:07;;;;;;;5.37;3.77;;;;;;;;;;5100198;28;20183;-53
2022/06/23 08:30:36;;;;;;;4.67;3.90;;;;;;;;;;5098165;28;20260;-53
2022/06/23 08:33:03;;;;;;;6.70;3.90;;;;;;;;;;5101021;28;20633;-54
2022/06/23 08:35:40;;;;;;;6.07;4.10;;;;;;;;;;5083606;28;20586;-54
2022/06/23 08:38:42;;;;;;;4.60;3.70;;;;;;;;;;5100159;28;20271;-53
2022/06/23 08:41:18;;;;;;;5.50;4.10;;;;;;;;;;5089253;28;20291;-53
2022/06/23 08:44:02;;;;;;;5.43;4.07;;;;;;;;;;5101089;28;20355;-53
2022/06/23 08:46:32;;;;;;;6.40;4.63;;;;;;;;;;5087868;28;20175;-54
2022/06/23 08:49:09;;;;;;;5.43;3.90;;;;;;;;;;5108087;28;20540;-54
2022/06/23 08:51:52;;;;;;;5.97;4.93;;;;;;;;;;5104545;28;20535;-54
2022/06/23 08:54:23;;;;;;;6.87;4.60;;;;;;;;;;5100178;28;20179;-53
2022/06/23 08:57:07;;;;;;;7.03;4.60;;;;;;;;;;5100931;28;20418;-53
2022/06/23 08:59:33;;;;;;;5.10;4.60;;;;;;;;;;5106925;28;20183;-54
2022/06/23 09:02:09;;;;;;;4.43;4.03;;;;;;;;;;5100677;28;20225;-54
2022/06/23 09:04:42;;;;;;;6.23;5.00;;;;;;;;;;5084508;28;20174;-54
2022/06/23 09:07:09;;;;;;;4.37;4.03;;;;;;;;;;5080332;28;20592;-54
2022/06/23 09:09:56;;;;;;;4.60;4.20;;;;;;;;;;5107941;28;20876;-52
2022/06/23 09:12:37;;;;;;;4.70;4.30;;;;;;;;;;5086147;28;20186;-53
2022/06/23 09:15:06;;;;;;;4.77;4.37;;;;;;;;;;5106950;28;20489;-54
2022/06/23 09:17:33;;;;;;;4.93;4.40;;;;;;;;;;5088621;28;20220;-53
2022/06/23 09:20:12;;;;;;;5.53;4.20;;;;;;;;;;5104287;28;20266;-53
2022/06/23 09:22:51;;;;;;;4.43;4.10;;;;;;;;;;5085304;28;20712;-53
2022/06/23 09:25:23;;;;;;;4.93;4.20;;;;;;;;;;5099202;28;20167;-54
2022/06/23 09:28:10;;;;;;;4.60;4.20;;;;;;;;;;5088434;28;20181;-53
2022/06/23 09:30:37;;;;;;;4.20;3.90;;;;;;;;;;5083200;28;20591;-54
2022/06/23 09:33:21;;;;;;;4.73;3.83;;;;;;;;;;5089623;28;20184;-54
2022/06/23 09:36:03;;;;;;;4.20;3.80;;;;;;;;;;5065105;28;20197;-54
2022/06/23 09:38:29;;;;;;;4.00;3.70;;;;;;;;;;5088334;28;20204;-54
2022/06/23 09:41:16;;;;;;;3.90;3.60;;;;;;;;;;5090164;28;20775;-54
2022/06/23 09:44:01;;;;;;;6.77;4.40;;;;;;;;;;5094744;28;20180;-53
2022/06/23 09:46:42;;;;;;;4.13;3.83;;;;;;;;;;5078619;28;20269;-54
2022/06/23 09:49:17;;;;;;;4.27;3.80;;;;;;;;;;5076481;28;20535;-55
2022/06/23 09:52:02;;;;;;;6.80;4.70;;;;;;;;;;5079227;28;20236;-54
2022/06/23 09:54:31;;;;;;;5.90;4.30;;;;;;;;;;5068720;28;20291;-54
2022/06/23 09:57:16;;;;;;;5.47;4.33;;;;;;;;;;5076626;28;20185;-53
2022/06/23 09:59:52;;;;;;;5.00;4.50;;;;;;;;;;5087201;28;20174;-54
2022/06/23 10:02:36;;;;;;;7.13;3.93;;;;;;;;;;5085870;28;20628;-53
2022/06/23 10:05:08;;;;;;;5.03;4.63;;;;;;;;;;5080063;28;20191;-54
2022/06/23 10:07:53;;;;;;;4.50;4.10;;;;;;;;;;5068549;28;20180;-54
2022/06/23 10:10:38;;;;;;;5.30;4.40;;;;;;;;;;5071812;28;20212;-54
2022/06/23 10:13:22;;;;;;;4.70;4.30;;;;;;;;;;5107162;28;20676;-55
2022/06/23 10:16:03;;;;;;;4.13;3.67;;;;;;;;;;5066397;28;20292;-54
2022/06/23 10:18:43;;;;;;;5.23;3.70;;;;;;;;;;5073306;27;20285;-54
2022/06/23 10:21:18;;;;;;;4.33;3.70;;;;;;;;;;5068089;28;20168;-54
2022/06/23 10:23:47;;;;;;;4.87;3.83;;;;;;;;;;5063095;28;20185;-55
2022/06/23 10:26:19;;;;;;;4.90;3.87;;;;;;;;;;5069422;28;20222;-56
2022/06/23 10:29:01;;;;;;;5.23;4.20;;;;;;;;;;5057059;28;20172;-55
2022/06/23 10:31:36;;;;;;;5.17;3.73;;;;;;;;;;5060423;28;20284;-55
2022/06/23 10:34:22;;;;;;;4.23;3.93;;;;;;;;;;5047423;28;20191;-54
2022/06/23 10:36:55;;;;;;;4.20;3.90;;;;;;;;;;5048973;28;20315;-54
2022/06/23 10:39:40;;;;;;;4.00;3.70;;;;;;;;;;5048677;28;20212;-55
2022/06/23 10:42:06;;;;;;;4.27;3.97;;;;;;;;;;5068597;28;20201;-54
2022/06/23 10:44:41;;;;;;;3.87;3.57;;;;;;;;;;5066762;28;20250;-54
2022/06/23 10:47:17;;;;;;;4.60;4.13;;;;;;;;;;5066796;28;20186;-55
2022/06/23 10:50:02;;;;;;;5.60;4.37;;;;;;;;;;5048230;28;20180;-54
2022/06/23 10:52:40;;;;;;;4.07;3.67;;;;;;;;;;5062011;28;20277;-55
2022/06/23 10:55:26;;;;;;;4.37;4.07;;;;;;;;;;5061129;28;20685;-54
2022/06/23 10:57:52;;;;;;;4.73;3.87;;;;;;;;;;5064612;28;20200;-55
2022/06/23 11:00:19;;;;;;;4.60;3.70;;;;;;;;;;5048398;28;20275;-55
2022/06/23 11:03:04;;;;;;;5.80;4.27;;;;;;;;;;5064726;28;20204;-55
2022/06/23 11:05:30;;;;;;;4.07;3.78;;;;;;;;;;5073779;28;20195;-55
2022/06/23 11:08:02;;;;;;;3.80;3.50;;;;;;;;;;5087019;28;20237;-55
2022/06/23 11:10:40;;;;;;;3.75;3.45;;;;;;;;;;5079308;28;20177;-55
2022/06/23 11:13:09;;;;;;;4.47;4.07;;;;;;;;;;5066019;28;20211;-56
2022/06/23 11:15:54;;;;;;;4.10;3.70;;;;;;;;;;5063696;28;20686;-55
2022/06/23 11:18:29;;;;;;;5.72;4.55;;;;;;;;;;5079462;28;20619;-55
2022/06/23 11:21:04;;;;;;;6.07;5.45;;;;;;;;;;5068516;28;20492;-54
2022/06/23 11:23:49;;;;;;;7.28;4.10;;;;;;;;;;5084516;28;20680;-55
2022/06/23 11:26:15;;;;;;;4.38;4.07;;;;;;;;;;5077117;28;20179;-55
2022/06/23 11:29:20;;;;;;;4.63;4.22;;;;;;;;;;5083009;28;20233;-55
2022/06/23 11:32:04;;;;;;;4.63;4.22;;;;;;;;;;5005249;28;20190;-55
2022/06/23 11:34:45;;;;;;;4.38;3.97;;;;;;;;;;5009915;28;20336;-55
2022/06/23 11:37:14;;;;;;;4.72;4.35;;;;;;;;;;5065500;28;20188;-55
2022/06/23 11:39:47;;;;;;;4.97;4.47;;;;;;;;;;5067372;28;20706;-55
2022/06/23 11:42:25;;;;;;;4.40;4.05;;;;;;;;;;5086886;28;20223;-56
2022/06/23 11:45:10;;;;;;;4.93;4.43;;;;;;;;;;5085721;28;20207;-56
2022/06/23 11:47:36;;;;;;;4.88;4.13;;;;;;;;;;5086915;28;20188;-54
2022/06/23 11:50:09;;;;;;;4.53;4.22;;;;;;;;;;5087703;28;20183;-54
2022/06/23 11:52:45;;;;;;;5.65;4.32;;;;;;;;;;5086644;28;20334;-54
2022/06/23 11:55:14;;;;;;;5.30;4.30;;;;;;;;;;5091369;28;20191;-54
2022/06/23 11:57:53;;;;;;;5.13;4.72;;;;;;;;;;5106389;28;20668;-54
2022/06/23 12:00:24;;;;;;;4.53;4.18;;;;;;;;;;5097965;28;20546;-55
2022/06/23 12:03:06;;;;;;;3.92;3.65;;;;;;;;;;5076751;28;20513;-55
2022/06/23 12:05:39;;;;;;;4.93;4.30;;;;;;;;;;5061619;28;20172;-55
2022/06/23 12:08:15;;;;;;;4.43;4.03;;;;;;;;;;5076095;28;20275;-54
2022/06/23 12:10:41;;;;;;;4.55;4.15;;;;;;;;;;5093167;28;20165;-55
2022/06/23 12:13:07;;;;;;;5.03;4.63;;;;;;;;;;5093241;28;20533;-55
2022/06/23 12:15:35;;;;;;;4.88;4.43;;;;;;;;;;5093075;28;20189;-55
2022/06/23 12:18:04;;;;;;;4.57;4.18;;;;;;;;;;5091177;28;20227;-54
2022/06/23 12:20:49;;;;;;;4.82;4.40;;;;;;;;;;5084822;28;20640;-55
2022/06/23 12:23:22;;;;;;;5.90;4.50;;;;;;;;;;5083831;28;20414;-55
2022/06/23 12:25:57;;;;;;;4.30;3.90;;;;;;;;;;5102932;28;20269;-56
2022/06/23 12:28:34;;;;;;;4.43;4.13;;;;;;;;;;5065769;28;20532;-56
2022/06/23 12:31:04;;;;;;;4.50;4.00;;;;;;;;;;5070960;28;20341;-55
2022/06/23 12:33:41;;;;;;;5.15;4.70;;;;;;;;;;5076516;28;20211;-55
2022/06/23 12:36:11;;;;;;;5.07;4.57;;;;;;;;;;5064309;28;20275;-55
2022/06/23 12:38:37;;;;;;;4.95;4.43;;;;;;;;;;5080753;28;20303;-55
2022/06/23 12:41:09;;;;;;;6.55;4.50;;;;;;;;;;5093951;28;20278;-55
2022/06/23 12:43:57;;;;;;;5.88;4.70;;;;;;;;;;5086844;28;20178;-55
2022/06/23 12:46:38;;;;;;;5.57;4.22;;;;;;;;;;5098465;28;20190;-54
2022/06/23 12:49:22;;;;;;;5.30;4.85;;;;;;;;;;5105694;28;20174;-55
2022/06/23 12:51:48;;;;;;;5.22;4.40;;;;;;;;;;5084433;28;20642;-55
2022/06/23 12:54:24;;;;;;;4.85;4.45;;;;;;;;;;5101798;28;20643;-56
2022/06/23 12:56:56;;;;;;;6.35;4.93;;;;;;;;;;5072998;28;20225;-55
2022/06/23 12:59:22;;;;;;;5.40;4.70;;;;;;;;;;5079167;28;20242;-56
2022/06/23 13:01:52;;;;;;;4.68;4.32;;;;;;;;;;5092061;28;20547;-55
2022/06/23 13:04:26;;;;;;;5.25;4.70;;;;;;;;;;5080983;28;20219;-55
2022/06/23 13:06:52;;;;;;;5.28;4.75;;;;;;;;;;5095678;28;20658;-55
2022/06/23 13:09:29;;;;;;;4.95;4.55;;;;;;;;;;5063076;28;20186;-56
2022/06/23 13:12:08;;;;;;;6.85;4.35;;;;;;;;;;5084967;28;20199;-56
2022/06/23 13:14:53;;;;;;;6.78;4.35;;;;;;;;;;5077451;28;20540;-56
2022/06/23 13:17:25;;;;;;;4.45;4.05;;;;;;;;;;5083776;28;20532;-56
2022/06/23 13:20:03;;;;;;;4.55;4.05;;;;;;;;;;5085280;28;20328;-56
2022/06/23 13:22:30;;;;;;;5.22;4.82;;;;;;;;;;5065734;28;20186;-55
2022/06/23 13:24:56;;;;;;;6.93;4.32;;;;;;;;;;5075700;28;20184;-54
2022/06/23 13:27:25;;;;;;;5.65;5.22;;;;;;;;;;5077793;28;20193;-55
2022/06/23 13:29:53;;;;;;;6.55;4.22;;;;;;;;;;5081942;28;20177;-60
2022/06/23 13:32:22;;;;;;;9.20;4.50;;;;;;;;;;5074392;28;20232;-55
2022/06/23 13:34:53;;;;;;;4.97;4.55;;;;;;;;;;5069483;28;20203;-55
2022/06/23 13:37:19;;;;;;;4.70;4.25;;;;;;;;;;5108986;28;20158;-54
2022/06/23 13:39:57;;;;;;;4.75;4.25;;;;;;;;;;5107175;28;20226;-55
2022/06/23 13:42:26;;;;;;;4.82;4.43;;;;;;;;;;5091242;28;20174;-55
2022/06/23 13:45:02;;;;;;;4.38;4.00;;;;;;;;;;5053451;28;20243;-55
2022/06/23 13:47:34;;;;;;;5.03;4.20;;;;;;;;;;5106080;28;20177;-55
2022/06/23 13:50:08;;;;;;;4.00;3.60;;;;;;;;;;5071335;28;20207;-55
2022/06/23 13:52:49;;;;;;;5.00;4.43;;;;;;;;;;5081783;28;20228;-55
2022/06/23 13:55:15;;;;;;;7.57;4.43;;;;;;;;;;5086031;28;20188;-57
2022/06/23 13:57:46;;;;;;;4.55;4.22;;;;;;;;;;5065758;28;20195;-58
2022/06/23 14:00:15;;;;;;;6.45;5.85;;;;;;;;;;5090248;28;20339;-56
2022/06/23 14:02:49;;;;;;;4.63;4.15;;;;;;;;;;5081993;28;20180;-56
2022/06/23 14:05:15;;;;;;;4.85;4.18;;;;;;;;;;5087027;28;20642;-57
2022/06/23 14:07:53;;;;;;;4.38;4.00;;;;;;;;;;5074271;28;20191;-57
2022/06/23 14:10:29;;;;;;;4.50;4.10;;;;;;;;;;5079729;28;20253;-57
2022/06/23 14:12:55;;;;;;;5.85;4.32;;;;;;;;;;5086857;28;20675;-56
2022/06/23 14:15:31;;;;;;;4.68;4.25;;;;;;;;;;5088211;28;20187;-56
2022/06/23 14:18:04;;;;;;;5.05;4.30;;;;;;;;;;5076138;28;20206;-56
2022/06/23 14:20:30;;;;;;;5.82;4.45;;;;;;;;;;5049400;28;20212;-57
2022/06/23 14:23:03;;;;;;;4.18;3.80;;;;;;;;;;5075417;28;20233;-57
2022/06/23 14:25:33;;;;;;;4.57;4.20;;;;;;;;;;5068584;28;20245;-55
2022/06/23 14:28:05;;;;;;;4.82;4.43;;;;;;;;;;5080767;28;20677;-56
2022/06/23 14:30:39;;;;;;;5.10;4.60;;;;;;;;;;5067497;28;20221;-55
2022/06/23 14:33:07;;;;;;;4.50;4.10;;;;;;;;;;5067461;28;20425;-55
2022/06/23 14:35:38;;;;;;;4.53;4.22;;;;;;;;;;5049544;28;20179;-55
2022/06/23 14:38:15;;;;;;;5.65;4.03;;;;;;;;;;5082795;28;20315;-54
2022/06/23 14:40:52;;;;;;;5.18;4.68;;;;;;;;;;5047397;28;20185;-56
2022/06/23 14:43:37;;;;;;;7.05;4.70;;;;;;;;;;5073468;28;20179;-56
2022/06/23 14:46:22;;;;;;;4.38;3.97;;;;;;;;;;5067741;28;20250;-54
2022/06/23 14:49:04;;;;;;;5.00;4.50;;;;;;;;;;5071978;28;20534;-54
2022/06/23 14:51:33;;;;;;;5.68;4.35;;;;;;;;;;5067353;28;20200;-55
2022/06/23 14:54:04;;;;;;;4.97;4.50;;;;;;;;;;5069436;28;20184;-55
2022/06/23 14:56:47;;;;;;;4.20;3.90;;;;;;;;;;5052084;28;20242;-55
2022/06/23 14:59:13;;;;;;;6.50;4.18;;;;;;;;;;5055099;28;20524;-55
2022/06/23 15:01:46;;;;;;;6.70;4.45;;;;;;;;;;5060383;28;20646;-55
2022/06/23 15:04:42;;;;;;;4.65;4.05;;;;;;;;;;5062118;28;20262;-56
2022/06/23 15:07:19;;;;;;;5.00;4.50;;;;;;;;;;5036151;28;20698;-56
2022/06/23 15:10:04;;;;;;;4.80;4.35;;;;;;;;;;5038386;28;20220;-56
2022/06/23 15:12:43;;;;;;;4.30;4.00;;;;;;;;;;5061728;28;20202;-61
2022/06/23 15:15:09;;;;;;;7.57;4.40;;;;;;;;;;5044034;28;20192;-61
2022/06/23 15:17:50;;;;;;;4.60;4.15;;;;;;;;;;5043013;28;20698;-61
2022/06/23 15:20:22;;;;;;;6.20;4.72;;;;;;;;;;5058808;28;20242;-61
2022/06/23 15:23:10;;;;;;;6.65;4.35;;;;;;;;;;5044674;28;20233;-61
2022/06/23 15:25:36;;;;;;;4.55;3.58;;;;;;;;;;5061184;28;20303;-61
2022/06/23 15:28:09;;;;;;;4.40;4.00;;;;;;;;;;5064902;28;20213;-60
2022/06/23 15:30:35;;;;;;;7.70;3.70;;;;;;;;;;5063246;28;20766;-60